NCAR-RAP Real-Time Weather Data

Output produced by METARs form (08 May 2021  01:14 UTC)
found at http://weather.rap.ucar.edu/surface/
 
KVPZ 080056Z AUTO 02006KT 10SM CLR 06/00 A3004 RMK AO2 SLP176 T00610000
KVPZ 072356Z AUTO 01011G22KT 10SM CLR 08/01 A3003 RMK AO2 SLP174 T00780006 10144 20078 53014
KVPZ 072256Z AUTO 01012G21KT 10SM CLR 10/M01 A3001 RMK AO2 PK WND 02028/2158 SLP168 T01001011
KVPZ 072156Z AUTO 02013G21KT 10SM CLR 11/00 A3000 RMK AO2 PK WND 02027/2102 SLP164 T01060000
KVPZ 072056Z AUTO 02014G24KT 10SM CLR 11/01 A2999 RMK AO2 PK WND 36028/2002 SLP159 T01060011 53008
KVPZ 071956Z AUTO 35014G26KT 10SM CLR 12/01 A2998 RMK AO2 PK WND 36026/1936 SLP155 T01220011
KVPZ 071856Z AUTO 02011G21KT 10SM FEW070 SCT090 13/04 A2997 RMK AO2 SLP152 T01280039
KVPZ 071756Z AUTO 01009KT 10SM FEW050 SCT070 BKN090 14/03 A2997 RMK AO2 SLP150 60000 T01390033 10150 20044 56007
KVPZ 071657Z AUTO 30010KT 10SM BKN050 OVC070 14/02 A2997 RMK AO2 RAB1557E08 SLP151 P0000 T01390022
KVPZ 071556Z AUTO 29014G24KT 10SM SCT050 BKN065 OVC075 13/02 A2998 RMK AO2 RAE03 SLP155 P0000 T01330022
KVPZ 071456Z AUTO 27013KT 10SM -RA FEW033 BKN075 OVC100 12/03 A2999 RMK AO2 RAB53 SLP157 P0000 60000 T01170028 58007
KVPZ 071356Z AUTO 24008KT 10SM BKN085 BKN100 11/04 A3000 RMK AO2 SLP160 T01110044
KVPZ 071256Z AUTO 23004KT 10SM BKN085 BKN100 07/03 A3000 RMK AO2 SLP164 T00670033
KVPZ 071156Z AUTO 23005KT 10SM BKN100 OVC120 04/02 A3001 RMK AO2 SLP167 70006 T00440017 10056 20017 55001
KVPZ 071056Z AUTO 23004KT 10SM CLR 02/00 A3000 RMK AO2 SLP163 T00220000